createdAt,value
2018-11-13T00:00:14.645Z,0.00
2018-11-13T00:01:14.819Z,0.00
2018-11-13T00:02:14.995Z,0.00
2018-11-13T00:03:15.172Z,0.00
2018-11-13T00:04:15.353Z,0.00
2018-11-13T00:05:15.521Z,0.00
2018-11-13T00:06:15.703Z,0.00
2018-11-13T00:07:15.882Z,0.00
2018-11-13T00:08:16.054Z,0.00
2018-11-13T00:09:16.232Z,0.00
2018-11-13T00:10:16.411Z,0.00
2018-11-13T00:11:16.593Z,0.00
2018-11-13T00:12:16.765Z,0.00
2018-11-13T00:13:16.950Z,0.00
2018-11-13T00:14:17.125Z,0.00
2018-11-13T00:15:17.298Z,0.00
2018-11-13T00:16:17.475Z,0.00
2018-11-13T00:17:17.651Z,0.00
2018-11-13T00:18:17.828Z,0.00
2018-11-13T00:19:18.004Z,0.00
2018-11-13T00:20:18.187Z,0.00
2018-11-13T00:21:18.365Z,0.00
2018-11-13T00:22:18.556Z,0.00
2018-11-13T00:23:18.715Z,0.00
2018-11-13T00:24:18.892Z,0.00
2018-11-13T00:25:19.076Z,0.00
2018-11-13T00:26:19.261Z,0.00
2018-11-13T00:27:19.439Z,0.00
2018-11-13T00:28:19.604Z,0.00
2018-11-13T00:29:19.808Z,0.00
2018-11-13T00:30:19.962Z,0.00
2018-11-13T00:31:20.137Z,0.00
2018-11-13T00:32:20.315Z,0.00
2018-11-13T00:33:20.489Z,0.00
2018-11-13T00:34:20.668Z,0.00
2018-11-13T00:35:20.846Z,0.00
2018-11-13T00:36:21.021Z,0.00
2018-11-13T00:37:21.198Z,0.00
2018-11-13T00:38:21.378Z,0.00
2018-11-13T00:39:21.553Z,0.00
2018-11-13T00:40:21.743Z,0.00
2018-11-13T00:41:21.908Z,0.00
2018-11-13T00:42:22.084Z,0.00
2018-11-13T00:43:22.268Z,0.00
2018-11-13T00:44:22.455Z,0.00
2018-11-13T00:45:22.678Z,0.00
2018-11-13T00:46:22.794Z,0.00
2018-11-13T00:47:22.972Z,0.00
2018-11-13T00:48:23.206Z,0.00
2018-11-13T00:49:23.325Z,0.00
2018-11-13T00:50:23.507Z,0.00
2018-11-13T00:51:23.681Z,0.00
2018-11-13T00:52:23.867Z,0.00
2018-11-13T00:53:24.035Z,0.00
2018-11-13T00:54:24.210Z,0.00
2018-11-13T00:55:24.389Z,0.00
2018-11-13T00:56:24.570Z,0.00
2018-11-13T00:57:24.743Z,0.00
2018-11-13T00:58:24.926Z,0.00
2018-11-13T00:59:25.099Z,0.00
2018-11-13T01:00:25.292Z,0.00
2018-11-13T01:01:25.457Z,0.00
2018-11-13T01:02:25.630Z,0.00
2018-11-13T01:03:25.819Z,0.00
2018-11-13T01:04:25.997Z,0.00
2018-11-13T01:05:26.518Z,0.00
2018-11-13T01:06:26.360Z,0.00
2018-11-13T01:07:26.532Z,0.00
2018-11-13T01:08:26.710Z,0.00
2018-11-13T01:09:26.888Z,0.00
2018-11-13T01:10:27.066Z,0.00
2018-11-13T01:11:27.245Z,0.00
2018-11-13T01:12:27.422Z,0.00
2018-11-13T01:13:27.725Z,0.00
2018-11-13T01:14:27.775Z,0.00
2018-11-13T01:15:27.955Z,0.00
2018-11-13T01:16:28.136Z,0.00
2018-11-13T01:17:28.361Z,0.00
2018-11-13T01:18:28.482Z,0.00
2018-11-13T01:19:28.667Z,0.00
2018-11-13T01:20:28.840Z,0.00
2018-11-13T01:21:29.019Z,0.00
2018-11-13T01:22:29.297Z,0.00
2018-11-13T01:23:29.375Z,0.00
2018-11-13T01:24:29.557Z,0.00
2018-11-13T01:25:29.732Z,0.00
2018-11-13T01:26:29.903Z,0.00
2018-11-13T01:27:30.083Z,0.00
2018-11-13T01:28:30.268Z,0.00
2018-11-13T01:29:30.435Z,0.00
2018-11-13T01:30:30.617Z,0.00
2018-11-13T01:31:30.795Z,0.00
2018-11-13T01:32:30.977Z,0.00
2018-11-13T01:33:31.140Z,0.00
2018-11-13T01:34:31.312Z,0.00
2018-11-13T01:35:31.498Z,0.00
2018-11-13T01:36:31.672Z,0.00
2018-11-13T01:37:31.849Z,0.00
2018-11-13T01:38:32.032Z,0.00
2018-11-13T01:39:32.205Z,0.00
2018-11-13T01:40:32.377Z,0.00
2018-11-13T01:41:32.589Z,0.00
2018-11-13T01:42:32.739Z,0.00
2018-11-13T01:43:32.912Z,0.00
2018-11-13T01:44:33.087Z,0.00
2018-11-13T01:45:33.267Z,0.00
2018-11-13T01:46:33.438Z,0.00
2018-11-13T01:47:33.619Z,0.00
2018-11-13T01:48:33.793Z,0.00
2018-11-13T01:49:34.094Z,0.00
2018-11-13T01:50:34.146Z,0.00
2018-11-13T01:51:34.339Z,0.00
2018-11-13T01:52:34.898Z,0.00
2018-11-13T01:53:34.688Z,0.00
2018-11-13T01:54:34.868Z,0.00
2018-11-13T01:55:35.046Z,0.00
2018-11-13T01:56:35.226Z,0.00
2018-11-13T01:57:35.398Z,0.00
2018-11-13T01:58:35.567Z,0.00
2018-11-13T01:59:35.739Z,0.00
2018-11-13T02:00:35.915Z,0.00
2018-11-13T02:01:36.094Z,0.00
2018-11-13T02:02:36.270Z,0.00
2018-11-13T02:03:36.445Z,0.00
2018-11-13T02:04:36.625Z,0.00
2018-11-13T02:05:36.807Z,0.00
2018-11-13T02:06:36.980Z,0.00
2018-11-13T02:07:37.165Z,0.00
2018-11-13T02:08:37.336Z,0.00
2018-11-13T02:09:37.512Z,0.00
2018-11-13T02:10:37.688Z,0.00
2018-11-13T02:11:37.870Z,0.00
2018-11-13T02:12:38.052Z,0.00
2018-11-13T02:13:38.222Z,0.00
2018-11-13T02:14:38.398Z,0.00
2018-11-13T02:15:38.574Z,0.00
2018-11-13T02:16:38.753Z,0.00
2018-11-13T02:17:38.941Z,0.00
2018-11-13T02:18:39.107Z,0.00
2018-11-13T02:19:39.289Z,0.00
2018-11-13T02:20:39.474Z,0.00
2018-11-13T02:21:39.659Z,0.00
2018-11-13T02:22:39.823Z,0.00
2018-11-13T02:23:39.995Z,0.00
2018-11-13T02:24:40.176Z,0.00
2018-11-13T02:25:40.352Z,0.00
2018-11-13T02:26:40.532Z,0.00
2018-11-13T02:27:40.705Z,0.00
2018-11-13T02:28:40.884Z,0.00
2018-11-13T02:29:41.064Z,0.00
2018-11-13T02:30:41.242Z,0.00
2018-11-13T02:31:41.422Z,0.00
2018-11-13T02:32:41.597Z,0.00
2018-11-13T02:33:41.773Z,0.00
2018-11-13T02:34:41.957Z,0.00
2018-11-13T02:35:42.210Z,0.00
2018-11-13T02:36:42.309Z,0.00
2018-11-13T02:37:42.487Z,0.00
2018-11-13T02:38:42.655Z,0.00
2018-11-13T02:39:42.833Z,0.00
2018-11-13T02:40:43.013Z,0.00
2018-11-13T02:41:43.182Z,0.00
2018-11-13T02:42:43.365Z,0.00
2018-11-13T02:43:43.540Z,0.00
2018-11-13T02:44:43.716Z,0.00
2018-11-13T02:45:43.893Z,0.00
2018-11-13T02:46:44.076Z,0.00
2018-11-13T02:47:44.252Z,0.00
2018-11-13T02:48:44.425Z,0.00
2018-11-13T02:49:44.611Z,0.00
2018-11-13T02:50:44.778Z,0.00
2018-11-13T02:51:44.957Z,0.00
2018-11-13T02:52:45.145Z,0.00
2018-11-13T02:53:45.311Z,0.00
2018-11-13T02:54:45.488Z,0.00
2018-11-13T02:55:45.668Z,0.00
2018-11-13T02:56:45.847Z,0.00
2018-11-13T02:57:46.027Z,0.00
2018-11-13T02:58:46.204Z,0.00
2018-11-13T02:59:46.384Z,0.00
2018-11-13T03:00:46.556Z,0.00
2018-11-13T03:01:46.732Z,0.00
2018-11-13T03:02:46.911Z,0.00
2018-11-13T03:03:47.098Z,0.00
2018-11-13T03:04:47.267Z,0.00
2018-11-13T03:05:47.450Z,0.00
2018-11-13T03:06:47.624Z,0.00
2018-11-13T03:07:47.801Z,0.00
2018-11-13T03:08:47.979Z,0.00
2018-11-13T03:09:48.159Z,0.00
2018-11-13T03:10:48.342Z,0.00
2018-11-13T03:11:48.512Z,0.00
2018-11-13T03:12:48.693Z,0.00
2018-11-13T03:13:49.067Z,0.00
2018-11-13T03:14:49.039Z,0.00
2018-11-13T03:15:49.222Z,0.00
2018-11-13T03:16:49.396Z,0.00
2018-11-13T03:17:49.585Z,0.00
2018-11-13T03:18:49.747Z,0.00
2018-11-13T03:19:49.927Z,0.00
2018-11-13T03:20:50.108Z,0.00
2018-11-13T03:21:50.277Z,0.00
2018-11-13T03:22:50.457Z,0.00
2018-11-13T03:23:50.636Z,0.00
2018-11-13T03:24:50.816Z,0.00
2018-11-13T03:25:50.992Z,0.00
2018-11-13T03:26:51.172Z,0.00
2018-11-13T03:27:51.350Z,0.00
2018-11-13T03:28:51.512Z,0.00
2018-11-13T03:29:51.690Z,0.00
2018-11-13T03:30:51.884Z,0.00
2018-11-13T03:31:52.047Z,0.00
2018-11-13T03:32:52.239Z,0.00
2018-11-13T03:33:52.403Z,0.00
2018-11-13T03:34:52.576Z,0.00
2018-11-13T03:35:52.763Z,0.00
2018-11-13T03:36:52.931Z,0.00
2018-11-13T03:37:53.105Z,0.00
2018-11-13T03:38:53.270Z,0.00
2018-11-13T03:39:53.449Z,0.00
2018-11-13T03:40:53.629Z,0.00
2018-11-13T03:41:53.797Z,0.00
2018-11-13T03:42:53.980Z,0.00
2018-11-13T03:43:54.157Z,0.00
2018-11-13T03:44:54.322Z,0.00
2018-11-13T03:45:54.502Z,0.00
2018-11-13T03:46:54.699Z,0.00
2018-11-13T03:47:55.794Z,0.00
2018-11-13T03:48:55.105Z,0.00
2018-11-13T03:49:55.276Z,0.00
2018-11-13T03:50:55.453Z,0.00
2018-11-13T03:51:55.643Z,0.00
2018-11-13T03:52:55.818Z,0.00
2018-11-13T03:53:55.995Z,0.00
2018-11-13T03:54:56.178Z,0.00
2018-11-13T03:55:56.343Z,0.00
2018-11-13T03:56:56.524Z,0.00
2018-11-13T03:57:56.703Z,0.00
2018-11-13T03:58:56.881Z,0.00
2018-11-13T03:59:57.054Z,0.00
2018-11-13T04:00:57.235Z,0.00
2018-11-13T04:01:57.423Z,0.00
2018-11-13T04:02:57.588Z,0.00
2018-11-13T04:03:57.763Z,0.00
2018-11-13T04:04:57.945Z,0.00
2018-11-13T04:05:58.122Z,0.00
2018-11-13T04:06:58.299Z,0.00
2018-11-13T04:07:58.474Z,0.00
2018-11-13T04:08:58.653Z,0.00
2018-11-13T04:09:58.832Z,0.00
2018-11-13T04:10:59.009Z,0.00
2018-11-13T04:11:59.188Z,0.00
2018-11-13T04:12:59.364Z,0.00
2018-11-13T04:13:59.541Z,0.00
2018-11-13T04:14:59.721Z,0.00
2018-11-13T04:15:59.895Z,0.00
2018-11-13T04:17:00.071Z,0.00
2018-11-13T04:18:00.252Z,0.00
2018-11-13T04:19:00.416Z,0.00
2018-11-13T04:20:00.587Z,0.00
2018-11-13T04:21:00.763Z,0.00
2018-11-13T04:22:00.944Z,0.00
2018-11-13T04:23:01.123Z,0.00
2018-11-13T04:24:01.296Z,0.00
2018-11-13T04:25:01.485Z,0.00
2018-11-13T04:26:01.666Z,0.00
2018-11-13T04:27:01.827Z,0.00
2018-11-13T04:28:02.002Z,0.00
2018-11-13T04:29:02.181Z,0.00
2018-11-13T04:30:02.359Z,0.00
2018-11-13T04:31:02.537Z,0.00
2018-11-13T04:32:02.713Z,0.00
2018-11-13T04:33:02.888Z,0.00
2018-11-13T04:34:03.067Z,0.00
2018-11-13T04:35:03.256Z,0.00
2018-11-13T04:36:03.421Z,0.00
2018-11-13T04:37:03.598Z,0.00
2018-11-13T04:38:03.778Z,0.00
2018-11-13T04:39:03.955Z,0.00
2018-11-13T04:40:04.143Z,0.00
2018-11-13T04:41:04.308Z,0.00
2018-11-13T04:42:04.487Z,0.00
2018-11-13T04:43:04.680Z,0.00
2018-11-13T04:44:04.852Z,0.00
2018-11-13T04:45:05.019Z,0.00
2018-11-13T04:46:05.204Z,0.00
2018-11-13T04:47:05.372Z,0.00
2018-11-13T04:48:05.549Z,0.00
2018-11-13T04:49:05.729Z,0.00
2018-11-13T04:50:05.904Z,0.00
2018-11-13T04:51:06.085Z,0.00
2018-11-13T04:52:06.258Z,0.00
2018-11-13T04:53:06.438Z,0.00
2018-11-13T04:54:06.616Z,0.00
2018-11-13T04:55:06.793Z,0.00
2018-11-13T04:56:06.972Z,0.00
2018-11-13T04:57:07.148Z,0.00
2018-11-13T04:58:07.326Z,0.00
2018-11-13T04:59:07.503Z,0.00
2018-11-13T05:00:07.687Z,0.00
2018-11-13T05:01:07.865Z,0.00
2018-11-13T05:02:08.034Z,0.00
2018-11-13T05:03:08.334Z,0.00
2018-11-13T05:04:08.389Z,0.00
2018-11-13T05:05:08.566Z,0.00
2018-11-13T05:06:08.747Z,0.00
2018-11-13T05:07:08.921Z,0.00
2018-11-13T05:08:09.097Z,0.00
2018-11-13T05:09:09.277Z,0.00
2018-11-13T05:10:09.534Z,0.00
2018-11-13T05:11:09.631Z,0.00
2018-11-13T05:12:09.807Z,0.00
2018-11-13T05:13:09.986Z,0.00
2018-11-13T05:14:10.163Z,0.00
2018-11-13T05:15:10.342Z,0.00
2018-11-13T05:16:10.516Z,0.00
2018-11-13T05:17:10.696Z,0.00
2018-11-13T05:18:10.870Z,0.00
2018-11-13T05:19:11.050Z,0.00
2018-11-13T05:20:11.227Z,0.00
2018-11-13T05:21:11.402Z,0.00
2018-11-13T05:22:11.579Z,0.00
2018-11-13T05:23:11.849Z,0.00
2018-11-13T05:24:11.929Z,0.00
2018-11-13T05:25:12.101Z,0.00
2018-11-13T05:26:12.290Z,0.00
2018-11-13T05:27:12.455Z,0.00
2018-11-13T05:28:12.635Z,0.00
2018-11-13T05:29:12.811Z,0.00
2018-11-13T05:30:12.986Z,0.00
2018-11-13T05:31:13.164Z,0.00
2018-11-13T05:32:13.340Z,0.00
2018-11-13T05:33:13.526Z,0.00
2018-11-13T05:34:13.696Z,0.00
2018-11-13T05:35:13.870Z,0.00
2018-11-13T05:36:14.050Z,0.00
2018-11-13T05:37:14.229Z,0.00
2018-11-13T05:38:14.404Z,0.00
2018-11-13T05:39:14.580Z,0.00
2018-11-13T05:40:14.758Z,0.00
2018-11-13T05:41:14.935Z,0.00
2018-11-13T05:42:15.113Z,0.00
2018-11-13T05:43:15.292Z,0.00
2018-11-13T05:44:15.467Z,0.00
2018-11-13T05:45:15.645Z,0.00
2018-11-13T05:46:15.825Z,0.00
2018-11-13T05:47:16.055Z,0.00
2018-11-13T05:48:16.170Z,0.00
2018-11-13T05:49:16.350Z,0.00
2018-11-13T05:50:16.525Z,0.00
2018-11-13T05:51:16.696Z,0.00
2018-11-13T05:52:16.877Z,0.00
2018-11-13T05:53:17.052Z,0.00
2018-11-13T05:54:17.228Z,0.00
2018-11-13T05:55:17.403Z,0.00
2018-11-13T05:56:17.581Z,0.00
2018-11-13T05:57:17.766Z,0.00
2018-11-13T05:58:17.933Z,0.00
2018-11-13T05:59:18.110Z,0.00
2018-11-13T06:00:18.290Z,0.00
2018-11-13T06:01:18.541Z,0.00
2018-11-13T06:02:18.633Z,0.00
2018-11-13T06:03:18.808Z,0.00
2018-11-13T06:04:18.987Z,0.00
2018-11-13T06:05:19.186Z,0.00
2018-11-13T06:06:19.340Z,0.00
2018-11-13T06:07:19.516Z,0.00
2018-11-13T06:08:19.741Z,0.00
2018-11-13T06:09:19.867Z,0.00
2018-11-13T06:10:20.043Z,0.00
2018-11-13T06:11:20.241Z,0.00
2018-11-13T06:12:20.422Z,0.00
2018-11-13T06:13:20.597Z,0.00
2018-11-13T06:14:20.773Z,0.00
2018-11-13T06:15:20.968Z,0.00
2018-11-13T06:16:21.145Z,0.00
2018-11-13T06:17:21.303Z,0.00
2018-11-13T06:18:21.582Z,0.00
2018-11-13T06:19:21.659Z,0.00
2018-11-13T06:20:21.838Z,0.00
2018-11-13T06:21:22.016Z,0.00
2018-11-13T06:22:22.194Z,0.00
2018-11-13T06:23:22.369Z,0.00
2018-11-13T06:24:22.535Z,0.00
2018-11-13T06:25:22.704Z,0.00
2018-11-13T06:26:22.889Z,0.00
2018-11-13T06:27:23.071Z,0.00
2018-11-13T06:28:23.235Z,0.00
2018-11-13T06:29:23.429Z,0.00
2018-11-13T06:30:23.598Z,0.00
2018-11-13T06:31:23.774Z,0.00
2018-11-13T06:32:23.952Z,0.00
2018-11-13T06:33:24.129Z,0.00
2018-11-13T06:34:24.311Z,0.00
2018-11-13T06:35:24.487Z,0.00
2018-11-13T06:36:24.668Z,0.00
2018-11-13T06:37:24.839Z,0.00
2018-11-13T06:38:25.016Z,0.00
2018-11-13T06:39:25.777Z,0.00
2018-11-13T06:40:25.371Z,0.00
2018-11-13T06:41:25.550Z,0.00
2018-11-13T06:42:25.725Z,0.00
2018-11-13T06:43:25.911Z,0.00
2018-11-13T06:44:26.080Z,0.00
2018-11-13T06:45:26.257Z,0.00
2018-11-13T06:46:26.432Z,0.00
2018-11-13T06:47:26.607Z,0.00
2018-11-13T06:48:26.790Z,0.00
2018-11-13T06:49:27.002Z,0.00
2018-11-13T06:50:27.135Z,0.00
2018-11-13T06:51:27.313Z,0.00
2018-11-13T06:52:27.490Z,0.00
2018-11-13T06:53:27.668Z,0.00
2018-11-13T06:54:27.843Z,0.00
2018-11-13T06:55:28.011Z,0.00
2018-11-13T06:56:28.212Z,0.00
2018-11-13T06:57:28.359Z,0.00
2018-11-13T06:58:28.539Z,0.00
2018-11-13T06:59:28.714Z,0.00
2018-11-13T07:00:28.883Z,0.00
2018-11-13T07:01:29.060Z,0.00
2018-11-13T07:02:29.237Z,0.00
2018-11-13T07:03:29.431Z,0.00
2018-11-13T07:04:29.575Z,0.00
2018-11-13T07:05:29.760Z,0.00
2018-11-13T07:06:29.935Z,0.00
2018-11-13T07:07:30.102Z,0.00
2018-11-13T07:08:30.289Z,0.00
2018-11-13T07:09:30.455Z,0.00
2018-11-13T07:10:30.662Z,0.00
2018-11-13T07:11:30.808Z,0.00
2018-11-13T07:12:30.983Z,0.00
2018-11-13T07:13:31.160Z,0.00
2018-11-13T07:14:31.337Z,5.63
2018-11-13T07:15:31.528Z,5.63
2018-11-13T07:16:31.682Z,5.63
2018-11-13T07:17:31.876Z,5.63
2018-11-13T07:18:32.212Z,5.63
2018-11-13T07:19:32.222Z,5.63
2018-11-13T07:20:32.403Z,11.25
2018-11-13T07:21:32.582Z,11.25
2018-11-13T07:22:32.759Z,11.25
2018-11-13T07:23:32.922Z,11.25
2018-11-13T07:24:33.100Z,11.25
2018-11-13T07:25:33.408Z,16.88
2018-11-13T07:26:33.454Z,16.88
2018-11-13T07:27:33.662Z,16.88
2018-11-13T07:28:33.820Z,16.88
2018-11-13T07:29:34.009Z,16.88
2018-11-13T07:30:34.157Z,16.88
2018-11-13T07:31:34.334Z,16.88
2018-11-13T07:32:34.518Z,16.88
2018-11-13T07:33:34.781Z,16.88
2018-11-13T07:34:34.866Z,22.50
2018-11-13T07:35:35.057Z,22.50
2018-11-13T07:36:35.240Z,22.50
2018-11-13T07:37:35.380Z,22.50
2018-11-13T07:38:35.563Z,28.13
2018-11-13T07:39:35.736Z,28.13
2018-11-13T07:40:35.905Z,28.13
2018-11-13T07:41:36.083Z,28.13
2018-11-13T07:42:36.257Z,28.13
2018-11-13T07:43:36.431Z,28.13
2018-11-13T07:44:36.619Z,28.13
2018-11-13T07:45:36.786Z,28.13
2018-11-13T07:46:36.995Z,28.13
2018-11-13T07:49:37.475Z,28.13
2018-11-13T07:50:37.649Z,28.13
2018-11-13T07:51:37.831Z,28.13
2018-11-13T07:52:38.008Z,22.50
2018-11-13T07:53:38.204Z,22.50
2018-11-13T07:54:38.354Z,16.88
2018-11-13T07:55:38.529Z,16.88
2018-11-13T07:56:38.710Z,16.88
2018-11-13T07:57:38.877Z,16.88
2018-11-13T07:58:39.052Z,11.25
2018-11-13T07:59:39.227Z,11.25
2018-11-13T08:00:39.402Z,11.25
2018-11-13T08:01:39.577Z,11.25
2018-11-13T08:02:39.777Z,11.25
2018-11-13T08:03:40.045Z,11.25
2018-11-13T08:04:40.139Z,11.25
2018-11-13T08:06:40.526Z,11.25
2018-11-13T08:07:40.645Z,11.25
2018-11-13T08:08:40.821Z,11.25
2018-11-13T08:09:40.993Z,11.25
2018-11-13T08:10:41.178Z,11.25
2018-11-13T08:11:41.323Z,11.25
2018-11-13T08:12:41.584Z,11.25
2018-11-13T08:13:41.811Z,11.25
2018-11-13T08:14:41.854Z,11.25
2018-11-13T08:15:42.044Z,11.25
2018-11-13T08:16:42.205Z,11.25
2018-11-13T08:17:42.389Z,16.88
2018-11-13T08:18:42.614Z,16.88
2018-11-13T08:19:42.735Z,22.50
2018-11-13T08:20:42.911Z,16.88
2018-11-13T08:21:43.103Z,16.88
2018-11-13T08:22:43.266Z,16.88
2018-11-13T08:23:43.440Z,16.88
2018-11-13T08:24:43.615Z,16.88
2018-11-13T08:26:43.963Z,22.50
2018-11-13T08:27:44.202Z,22.50
2018-11-13T08:28:44.369Z,22.50
2018-11-13T08:29:44.493Z,16.88
2018-11-13T08:30:44.670Z,16.88
2018-11-13T08:31:44.843Z,22.50
2018-11-13T08:32:45.029Z,22.50
2018-11-13T08:33:45.199Z,22.50
2018-11-13T08:34:45.420Z,22.50
2018-11-13T08:35:45.595Z,28.13
2018-11-13T08:36:45.725Z,28.13
2018-11-13T08:37:45.906Z,33.75
2018-11-13T08:38:46.082Z,39.38
2018-11-13T08:39:46.259Z,39.38
2018-11-13T08:40:46.435Z,39.38
2018-11-13T08:41:46.617Z,50.63
2018-11-13T08:42:46.790Z,50.63
2018-11-13T08:43:47.042Z,67.50
2018-11-13T08:44:47.139Z,67.50
2018-11-13T08:45:47.321Z,56.25
2018-11-13T08:46:47.499Z,45.00
2018-11-13T08:47:47.667Z,39.38
2018-11-13T08:49:48.004Z,33.75
2018-11-13T08:50:48.183Z,39.38
2018-11-13T08:51:48.355Z,39.38
2018-11-13T08:52:48.529Z,33.75
2018-11-13T08:53:48.710Z,33.75
2018-11-13T08:54:48.866Z,33.75
2018-11-13T08:55:49.045Z,33.75
2018-11-13T08:56:49.223Z,33.75
2018-11-13T08:57:49.400Z,28.13
2018-11-13T08:58:49.663Z,22.50
2018-11-13T08:59:49.761Z,28.13
2018-11-13T09:00:49.952Z,33.75
2018-11-13T09:01:50.127Z,33.75
2018-11-13T09:02:50.299Z,39.38
2018-11-13T09:03:50.476Z,39.38
2018-11-13T09:04:50.738Z,45.00
2018-11-13T09:05:50.835Z,50.63
2018-11-13T09:06:51.012Z,56.25
2018-11-13T09:07:51.192Z,56.25
2018-11-13T09:08:51.375Z,61.88
2018-11-13T09:09:51.564Z,67.50
2018-11-13T09:10:51.732Z,78.75
2018-11-13T09:11:52.160Z,84.38
2018-11-13T09:12:52.092Z,90.00
2018-11-13T09:13:52.270Z,101.25
2018-11-13T09:14:52.446Z,101.25
2018-11-13T09:15:52.622Z,106.88
2018-11-13T09:16:52.804Z,101.25
2018-11-13T09:17:52.997Z,101.25
2018-11-13T09:18:53.222Z,101.25
2018-11-13T09:19:53.326Z,101.25
2018-11-13T09:20:53.503Z,95.63
2018-11-13T09:21:53.811Z,90.00
2018-11-13T09:22:53.873Z,90.00
2018-11-13T09:23:54.037Z,84.38
2018-11-13T09:24:54.211Z,78.75
2018-11-13T09:25:54.388Z,78.75
2018-11-13T09:26:54.567Z,73.13
2018-11-13T09:27:54.750Z,61.88
2018-11-13T09:28:54.920Z,56.25
2018-11-13T09:29:55.122Z,56.25
2018-11-13T09:30:55.617Z,61.88
2018-11-13T09:31:55.563Z,67.50
2018-11-13T09:32:55.649Z,73.13
2018-11-13T09:33:55.804Z,73.13
2018-11-13T09:34:55.980Z,67.50
2018-11-13T09:35:56.242Z,61.88
2018-11-13T09:36:56.335Z,61.88
2018-11-13T09:37:56.514Z,61.88
2018-11-13T09:38:56.695Z,73.13
2018-11-13T09:39:56.874Z,78.75
2018-11-13T09:40:57.043Z,84.38
2018-11-13T09:41:57.216Z,95.63
2018-11-13T09:42:57.419Z,106.88
2018-11-13T09:43:57.586Z,112.50
2018-11-13T09:44:57.845Z,112.50
2018-11-13T09:45:57.999Z,118.13
2018-11-13T09:46:58.374Z,174.38
2018-11-13T09:47:58.280Z,180.00
2018-11-13T09:48:58.454Z,202.50
2018-11-13T09:49:58.633Z,208.13
2018-11-13T09:50:58.820Z,185.63
2018-11-13T09:51:58.983Z,157.50
2018-11-13T09:52:59.160Z,275.63
2018-11-13T09:53:59.333Z,455.63
2018-11-13T09:54:59.510Z,511.88
2018-11-13T09:55:59.685Z,405.00
2018-11-13T09:56:59.869Z,365.63
2018-11-13T09:58:00.064Z,551.25
2018-11-13T09:59:00.321Z,556.88
2018-11-13T10:00:00.409Z,517.50
2018-11-13T10:01:00.797Z,450.00
2018-11-13T10:02:01.349Z,416.25
2018-11-13T10:03:01.764Z,270.00
2018-11-13T10:04:02.049Z,315.00
2018-11-13T10:05:02.075Z,320.63
2018-11-13T10:06:01.621Z,371.25
2018-11-13T10:07:01.644Z,556.88
2018-11-13T10:08:01.838Z,438.75
2018-11-13T10:09:02.009Z,427.50
2018-11-13T10:10:02.240Z,438.75
2018-11-13T10:11:02.377Z,568.13
2018-11-13T10:12:02.544Z,562.50
2018-11-13T10:13:02.724Z,573.75
2018-11-13T10:14:02.895Z,281.25
2018-11-13T10:15:03.081Z,253.13
2018-11-13T10:16:03.253Z,264.38
2018-11-13T10:17:03.480Z,247.50
2018-11-13T10:18:03.757Z,225.00
2018-11-13T10:19:03.793Z,208.13
2018-11-13T10:20:03.974Z,202.50
2018-11-13T10:21:04.157Z,202.50
2018-11-13T10:22:04.335Z,196.88
2018-11-13T10:23:04.523Z,196.88
2018-11-13T10:24:04.692Z,196.88
2018-11-13T10:25:04.875Z,219.38
2018-11-13T10:26:05.061Z,196.88
2018-11-13T10:27:05.268Z,196.88
2018-11-13T10:28:05.467Z,196.88
2018-11-13T10:29:05.590Z,225.00
2018-11-13T10:30:05.777Z,225.00
2018-11-13T10:31:05.949Z,219.38
2018-11-13T10:32:06.136Z,196.88
2018-11-13T10:33:06.304Z,174.38
2018-11-13T10:34:06.483Z,196.88
2018-11-13T10:35:06.668Z,180.00
2018-11-13T10:36:06.832Z,174.38
2018-11-13T10:37:07.007Z,202.50
2018-11-13T10:38:07.200Z,219.38
2018-11-13T10:39:07.352Z,258.75
2018-11-13T10:40:07.580Z,286.88
2018-11-13T10:41:07.795Z,326.25
2018-11-13T10:42:07.885Z,303.75
2018-11-13T10:43:08.074Z,438.75
2018-11-13T10:44:08.270Z,551.25
2018-11-13T10:45:08.443Z,281.25
2018-11-13T10:46:08.619Z,253.13
2018-11-13T10:47:08.838Z,292.50
2018-11-13T10:48:09.000Z,320.63
2018-11-13T10:49:09.236Z,270.00
2018-11-13T10:50:09.400Z,275.63
2018-11-13T10:51:09.537Z,286.88
2018-11-13T10:52:09.718Z,270.00
2018-11-13T10:53:09.910Z,253.13
2018-11-13T10:54:10.081Z,241.88
2018-11-13T10:55:10.259Z,236.25
2018-11-13T10:56:10.436Z,219.38
2018-11-13T10:57:10.616Z,202.50
2018-11-13T10:58:10.804Z,163.13
2018-11-13T10:59:11.063Z,123.75
2018-11-13T11:00:11.127Z,112.50
2018-11-13T11:01:11.385Z,123.75
2018-11-13T11:02:11.543Z,129.38
2018-11-13T11:03:11.694Z,118.13
2018-11-13T11:04:11.861Z,112.50
2018-11-13T11:05:12.041Z,118.13
2018-11-13T11:06:12.215Z,118.13
2018-11-13T11:07:12.378Z,106.88
2018-11-13T11:08:12.618Z,101.25
2018-11-13T11:09:12.725Z,101.25
2018-11-13T11:10:12.907Z,95.63
2018-11-13T11:11:13.107Z,95.63
2018-11-13T11:12:13.236Z,106.88
2018-11-13T11:13:13.569Z,118.13
2018-11-13T11:14:13.601Z,118.13
2018-11-13T11:15:13.775Z,101.25
2018-11-13T11:16:13.952Z,95.63
2018-11-13T11:17:14.140Z,95.63
2018-11-13T11:18:14.421Z,135.00
2018-11-13T11:19:14.533Z,174.38
2018-11-13T11:20:14.645Z,191.25
2018-11-13T11:21:14.822Z,202.50
2018-11-13T11:22:14.999Z,185.63
2018-11-13T11:23:15.201Z,180.00
2018-11-13T11:24:15.440Z,185.63
2018-11-13T11:25:15.575Z,196.88
2018-11-13T11:26:15.705Z,191.25
2018-11-13T11:27:15.878Z,202.50
2018-11-13T11:28:16.113Z,174.38
2018-11-13T11:29:16.237Z,168.75
2018-11-13T11:30:16.419Z,196.88
2018-11-13T11:31:16.568Z,185.63
2018-11-13T11:32:16.759Z,376.88
2018-11-13T11:33:16.935Z,275.63
2018-11-13T11:34:17.123Z,450.00
2018-11-13T11:35:17.301Z,405.00
2018-11-13T11:36:17.479Z,461.25
2018-11-13T11:37:17.787Z,393.75
2018-11-13T11:38:17.822Z,410.63
2018-11-13T11:39:18.086Z,298.13
2018-11-13T11:40:18.189Z,337.50
2018-11-13T11:41:18.357Z,163.13
2018-11-13T11:42:18.542Z,202.50
2018-11-13T11:43:18.725Z,191.25
2018-11-13T11:44:18.903Z,213.75
2018-11-13T11:45:19.066Z,213.75
2018-11-13T11:46:19.231Z,219.38
2018-11-13T11:47:19.416Z,213.75
2018-11-13T11:48:19.603Z,219.38
2018-11-13T11:49:19.770Z,365.63
2018-11-13T11:50:19.956Z,253.13
2018-11-13T11:51:20.129Z,225.00
2018-11-13T11:52:20.298Z,208.13
2018-11-13T11:53:20.477Z,185.63
2018-11-13T11:54:20.655Z,163.13
2018-11-13T11:55:20.841Z,213.75
2018-11-13T11:56:21.047Z,348.75
2018-11-13T11:57:21.206Z,163.13
2018-11-13T11:58:21.389Z,225.00
2018-11-13T11:59:21.568Z,382.50
2018-11-13T12:00:21.745Z,315.00
2018-11-13T12:01:21.930Z,399.38
2018-11-13T12:02:22.199Z,180.00
2018-11-13T12:03:22.302Z,174.38
2018-11-13T12:04:22.441Z,292.50
2018-11-13T12:05:22.628Z,168.75
2018-11-13T12:06:22.796Z,371.25
2018-11-13T12:07:22.984Z,180.00
2018-11-13T12:08:23.166Z,180.00
2018-11-13T12:09:23.337Z,174.38
2018-11-13T12:10:23.525Z,151.88
2018-11-13T12:11:23.695Z,135.00
2018-11-13T12:12:23.896Z,118.13
2018-11-13T12:13:24.056Z,106.88
2018-11-13T12:14:24.241Z,106.88
2018-11-13T12:15:24.414Z,101.25
2018-11-13T12:16:24.600Z,106.88
2018-11-13T12:17:24.772Z,106.88
2018-11-13T12:18:24.952Z,90.00
2018-11-13T12:19:25.217Z,84.38
2018-11-13T12:20:25.314Z,95.63
2018-11-13T12:21:25.506Z,106.88
2018-11-13T12:22:25.682Z,286.88
2018-11-13T12:23:25.857Z,286.88
2018-11-13T12:24:26.040Z,118.13
2018-11-13T12:25:26.212Z,247.50
2018-11-13T12:26:26.391Z,168.75
2018-11-13T12:27:26.571Z,151.88
2018-11-13T12:28:26.746Z,135.00
2018-11-13T12:29:26.925Z,258.75
2018-11-13T12:30:27.104Z,196.88
2018-11-13T12:31:27.283Z,326.25
2018-11-13T12:32:27.455Z,230.63
2018-11-13T12:33:27.638Z,371.25
2018-11-13T12:34:27.832Z,365.63
2018-11-13T12:35:27.997Z,191.25
2018-11-13T12:36:28.183Z,168.75
2018-11-13T12:37:28.352Z,151.88
2018-11-13T12:38:28.528Z,129.38
2018-11-13T12:39:28.738Z,118.13
2018-11-13T12:40:28.928Z,101.25
2018-11-13T12:41:29.095Z,78.75
2018-11-13T12:42:29.271Z,67.50
2018-11-13T12:43:29.463Z,67.50
2018-11-13T12:44:29.632Z,67.50
2018-11-13T12:45:29.813Z,78.75
2018-11-13T12:46:30.042Z,78.75
2018-11-13T12:47:30.161Z,73.13
2018-11-13T12:48:30.346Z,78.75
2018-11-13T12:49:30.517Z,101.25
2018-11-13T12:50:30.694Z,135.00
2018-11-13T12:51:30.877Z,129.38
2018-11-13T12:52:31.048Z,123.75
2018-11-13T12:53:31.225Z,118.13
2018-11-13T12:54:31.442Z,118.13
2018-11-13T12:55:31.644Z,123.75
2018-11-13T12:56:31.764Z,151.88
2018-11-13T12:57:31.915Z,191.25
2018-11-13T12:58:32.088Z,174.38
2018-11-13T12:59:32.307Z,157.50
2018-11-13T13:00:32.469Z,140.63
2018-11-13T13:01:32.640Z,129.38
2018-11-13T13:02:32.828Z,135.00
2018-11-13T13:03:32.991Z,135.00
2018-11-13T13:04:33.147Z,168.75
2018-11-13T13:05:33.326Z,146.25
2018-11-13T13:06:33.500Z,168.75
2018-11-13T13:07:33.726Z,157.50